Weather observations for the past three days for
Valdez 2
Metric (Imperial)
Date Time (akdt) Wind (kph) Vis. (km) Weather Sky Cond. Temperature (ºC) Relative Humidity Wind Chill (°C) Heat Index (°C) Pressure Precipitation (cm)
Air Dwpt 6 hour altimeter (cm) sea level (mb) 1 hr 3 hr 6 hr
Max. Min.
05 15:56 SW 6 11.27 Light Rain BKN010 BKN020 OVC030 5 3.9 5.6 4.4 93% 75.87 1011.3
05 14:56 W 9 11.27 Light Rain BKN015 BKN020 OVC030 5 5 100% 3 75.84 1011.0
05 13:56 SW 9 8.05 Light Rain Fog/Mist FEW012 BKN018 OVC030 5 4.4 96% 3 75.82 1010.7
05 12:56 W 9 9.66 Light Rain Fog/Mist FEW008 BKN020 OVC030 5 5 100% 3 75.82 1010.5
05 11:56 W 6 11.27 Light Rain FEW010 BKN027 OVC045 5.6 5 96% 75.77 1010.1
05 10:56 Calm 12.87 Overcast FEW006 BKN020 OVC045 5 5 100% 75.79 1010.3
05 09:56 Calm 9.66 Fog/Mist FEW005 BKN017 OVC035 5 5 5 2.8 100% 75.79 1010.3
05 08:56 Calm 9.66 Fog/Mist FEW001 BKN011 OVC035 3.9 3.9 100% 75.77 1010.0
05 07:56 Calm 6.44 Light Rain Fog/Mist Shallow Fog FEW001 BKN015 OVC035 3.9 3.9 100% 75.77 1010.1
05 06:56 Calm 8.05 Light Rain Fog/Mist Shallow Fog FEW001 BKN015 OVC045 3.3 3.3 100% 75.72 1009.4
05 05:56 S 6 16.09 Light Rain BKN004 BKN014 OVC021 3.3 3.3 100% 75.72 1009.1
05 04:56 W 7 1.21 Light Rain Fog/Mist BKN006 BKN009 OVC031 2.8 2.8 100% 1 75.72 1009.1
05 03:56 Calm 8.05 Light Rain Fog/Mist BKN004 OVC031 3.3 3.3 3.9 2.2 100% 75.67 1008.7
05 02:56 E 6 1.21 Light Rain Fog/Mist BKN004 OVC014 2.8 2.8 100% 75.69 1009.1
05 01:56 Calm 3.22 Light Rain Fog/Mist BKN004 BKN021 OVC034 2.8 2.8 100% 75.72 1009.3
05 00:56 Calm 2.41 Light Rain Fog/Mist OVC002 3.3 3.3 100% 75.74 1009.5
04 23:56 Calm 1.21 Light Rain Fog/Mist BKN002 OVC055 3.3 3.3 100% 75.77 1010.1
04 22:56 Calm 0.40 Light Rain Fog OVC002 2.8 2.8 100% 75.84 1010.8
04 21:56 Calm 1.21 Light Rain Fog/Mist FEW000 BKN009 OVC035 3.9 3.9 4.4 3.9 100% 75.87 1011.4
04 20:56 Calm 16.09 Light Rain FEW006 SCT025 OVC040 3.9 3.9 100% 75.92 1012.1
04 19:56 Calm 16.09 Light Rain Patches Fog FEW003 SCT020 OVC040 3.9 3.9 100% 76 1013.0
04 18:56 Calm 4.83 Light Rain Fog/Mist Patches Fog FEW003 SCT015 OVC030 3.9 3.9 100% 76.07 1014.0
04 17:56 Calm 2.41 Rain Fog/Mist FEW003 SCT020 OVC040 4 0 0% 76.15 1015.2
04 16:56 Calm 2.41 Rain Fog/Mist FEW003 BKN025 OVC040 4 0 0% 76.23 0.0
04 15:56 W 6 2.41 Light Rain Fog/Mist SCT005 BKN038 OVC047 4 0 4.4 2.8 0% 76.28 0.0 0.03 0.03
04 14:56 Calm 11.27 Light Rain FEW006 SCT036 OVC047 4.4 4.4 100% 76.38 1018.0
04 13:56 Calm 11.27 Light Rain SCT036 OVC047 4.4 4.4 100% 76.45 1019.1
04 12:56 Calm 12.87 Light Rain FEW004 FEW037 OVC050 3.3 3.3 100% 76.53 1020.2
04 11:56 SW 7 12.87 Light Rain FEW004 SCT033 OVC050 2.8 2.8 100% 1 76.58 1021.0
04 10:56 Calm 16.09 Overcast FEW008 FEW043 OVC065 4.4 3.9 97% 76.66 1021.8
04 09:56 Calm 12.87 Light Rain FEW006 OVC050 3.3 3.3 100% 76.71 1022.4 0.03
04 08:56 Calm 9.66 Light Rain Fog/Mist SCT003 SCT040 OVC050 2.2 2.2 100% 76.73 1022.9
04 07:56 Calm 9.66 Light Rain Fog/Mist SCT003 SCT040 OVC050 1.1 1.1 100% 76.78 1023.5
04 06:56 Calm 9.66 Light Rain Fog/Mist FEW003 SCT035 OVC050 0.6 0.6 100% 76.78 1023.6 0.03
04 05:56 Calm 16.09 Unknown Precip BKN046 OVC055 0.6 0.6 100% 76.81 1024.0 0.03
04 03:56 Calm 12.87 Unknown Precip BKN028 OVC037 0 0 0% 76.86 0.0 0.03 0.08
04 02:56 Calm 14.48 Unknown Precip OVC026 0 0 0% 76.89 1024.9
04 01:56 Calm 6.44 Light Snow OVC023 0 0 0% 76.91 1025.1 0.03
04 00:56 Calm 8.05 Light Snow OVC021 0 0 0% 76.91 1025.2 0.03 0.03
03 23:56 Calm 9.66 Light Snow Fog/Mist SCT004 OVC021 0.6 0.6 100% 76.89 1024.9
03 22:56 Calm 12.87 Light Snow OVC023 1.1 1.1 100% 76.89 1024.9
03 21:56 Calm 9.66 Light Rain Fog/Mist BKN020 OVC030 1.7 1.7 4.4 1.7 100% 76.89 1024.7 0.03 0.08
03 20:56 Calm 9.66 Light Rain Fog/Mist BKN020 OVC030 2.2 2.2 100% 76.86 1024.6 0.03
03 19:56 E 6 11.27 Light Rain BKN010 BKN020 OVC030 3.3 3.3 100% 76.86 1024.6
03 18:56 Calm 11.27 Light Rain SCT005 BKN015 OVC025 3.9 3.9 100% 76.86 1024.5 0.03
03 17:56 Calm 12.87 Light Rain FEW020 SCT030 OVC040 3.9 3.9 100% 76.86 1024.5 0.03
03 16:56 Calm 12.87 Light Rain FEW020 SCT030 OVC040 4.4 4.4 100% 76.86 1024.5
03 15:56 Calm 12.87 Light Rain SCT005 BKN015 OVC035 4.4 4.4 5 4.4 100% 76.89 1024.9
03 14:56 Calm 12.87 Light Rain FEW008 SCT025 OVC035 4.4 4.4 100% 76.91 1025.1
03 13:56 W 6 8.05 Light Rain Fog/Mist FEW008 SCT012 OVC020 5 5 100% 76.89 1025.0
03 12:56 Calm 9.66 Light Rain Fog/Mist SCT008 BKN020 OVC035 5 5 100% 76.91 1025.0
03 11:56 W 6 9.66 Light Rain Fog/Mist FEW006 SCT025 OVC045 4.4 4.4 100% 76.91 1025.1
03 10:56 W 7 9.66 Light Rain Fog/Mist FEW006 SCT020 OVC030 4.4 4.4 100% 3 76.91 1025.1
03 09:56 Calm 14.48 Overcast FEW003 SCT035 OVC050 4.4 3.3 5 1.7 93% 76.91 1025.0
03 08:56 Calm 16.09 Overcast FEW002 SCT050 OVC070 3.9 3.9 100% 76.89 1024.9
03 07:56 Calm 16.09 Light Rain Shallow Fog FEW003 BKN070 OVC150 3.3 3.3 100% 76.91 1025.2
03 06:56 Calm 16.09 Overcast FEW003 FEW020 OVC075 2.2 2.2 100% 76.94 1025.6
03 05:56 Calm 4.83 Fog/Mist SCT017 BKN026 OVC043 1.7 1.7 100% 76.96 1026.0
03 04:56 Calm 9.66 Light Rain Fog/Mist SCT012 OVC019 1.7 1.7 100% 76.99 1026.2
03 03:56 Calm 16.09 Light Rain OVC017 2.2 2.2 3.9 1.7 100% 76.99 1026.3
03 02:56 Calm 9.66 Overcast with Haze OVC021 2 0 0% 77.04 1026.9
03 01:56 Calm 16.09 Light Rain OVC018 2.2 2.2 100% 77.06 1027.1
03 00:56 Calm 14.48 Overcast OVC060 2 0 0% 77.04 1026.9
02 23:56 Calm 16.09 Overcast FEW014 OVC055 2 0 0% 77.06 1027.2
02 22:56 Calm 16.09 Light Rain BKN035 OVC043 2.2 2.2 100% 77.01 1026.7
02 21:56 Calm 12.87 Overcast OVC040 3.9 3.9 3.9 2.8 100% 77.01 1026.4
02 20:56 Calm 12.87 Overcast FEW005 BKN045 OVC060 3.9 3.9 100% 76.99 1026.0
02 19:56 SW 6 12.87 Overcast FEW005 BKN045 OVC060 3.9 3.9 100% 76.94 1025.6
02 18:56 Calm 12.87 Overcast FEW005 BKN045 OVC060 3.9 3.9 100% 76.96 1025.9
02 17:56 Calm 12.87 Overcast FEW010 SCT030 OVC040 3.9 3.9 100% 76.96 1025.8
02 16:56 Calm 12.87 Overcast FEW005 SCT030 OVC040 3.3 3.3 100% 76.94 1025.6
Date Time (akdt) Wind (kph) Vis. (km) Weather Sky Cond. Air Dwpt Max. Min. Relative Humidity Wind Chill (°C) Heat Index (°C) altimeter (cm) sea level (mb) 1 hr 3 hr 6 hr
6 hour
Temperature (ºC) Pressure Precipitation (cm)